sensor_id;sensor_type;location;lat;lon;timestamp;P1;durP1;ratioP1;P2;durP2;ratioP2
8040;SDS011;4063;48.140;10.250;2023-07-20T00:00:51;3.63;;;2.63;;
8040;SDS011;4063;48.140;10.250;2023-07-20T00:03:18;2.95;;;2.30;;
8040;SDS011;4063;48.140;10.250;2023-07-20T00:05:48;5.72;;;2.53;;
8040;SDS011;4063;48.140;10.250;2023-07-20T00:08:14;6.25;;;2.78;;
8040;SDS011;4063;48.140;10.250;2023-07-20T00:10:41;3.13;;;2.50;;
8040;SDS011;4063;48.140;10.250;2023-07-20T00:13:07;4.60;;;2.65;;
8040;SDS011;4063;48.140;10.250;2023-07-20T00:15:33;4.60;;;2.40;;
8040;SDS011;4063;48.140;10.250;2023-07-20T00:17:59;3.88;;;2.08;;
8040;SDS011;4063;48.140;10.250;2023-07-20T00:20:25;4.50;;;2.60;;
8040;SDS011;4063;48.140;10.250;2023-07-20T00:22:51;5.00;;;2.70;;
8040;SDS011;4063;48.140;10.250;2023-07-20T00:25:17;3.25;;;1.95;;
8040;SDS011;4063;48.140;10.250;2023-07-20T00:27:43;6.15;;;3.40;;
8040;SDS011;4063;48.140;10.250;2023-07-20T00:30:10;6.88;;;3.53;;
8040;SDS011;4063;48.140;10.250;2023-07-20T00:32:36;11.48;;;6.28;;
8040;SDS011;4063;48.140;10.250;2023-07-20T00:35:02;11.02;;;7.32;;
8040;SDS011;4063;48.140;10.250;2023-07-20T00:37:28;17.60;;;8.10;;
8040;SDS011;4063;48.140;10.250;2023-07-20T00:39:54;13.52;;;6.93;;
8040;SDS011;4063;48.140;10.250;2023-07-20T00:42:20;16.13;;;7.07;;
8040;SDS011;4063;48.140;10.250;2023-07-20T00:44:46;10.32;;;6.90;;
8040;SDS011;4063;48.140;10.250;2023-07-20T00:47:12;10.90;;;6.35;;
8040;SDS011;4063;48.140;10.250;2023-07-20T00:49:38;18.67;;;8.35;;
8040;SDS011;4063;48.140;10.250;2023-07-20T00:52:04;13.73;;;7.22;;
8040;SDS011;4063;48.140;10.250;2023-07-20T00:54:32;15.52;;;6.43;;
8040;SDS011;4063;48.140;10.250;2023-07-20T00:56:58;16.17;;;7.78;;
8040;SDS011;4063;48.140;10.250;2023-07-20T00:59:24;7.18;;;4.70;;
8040;SDS011;4063;48.140;10.250;2023-07-20T01:01:51;9.00;;;4.57;;
8040;SDS011;4063;48.140;10.250;2023-07-20T01:04:17;5.57;;;2.53;;
8040;SDS011;4063;48.140;10.250;2023-07-20T01:09:19;11.48;;;5.13;;
8040;SDS011;4063;48.140;10.250;2023-07-20T01:14:15;10.73;;;6.32;;
8040;SDS011;4063;48.140;10.250;2023-07-20T01:16:42;11.90;;;5.72;;
8040;SDS011;4063;48.140;10.250;2023-07-20T01:19:09;6.95;;;3.70;;
8040;SDS011;4063;48.140;10.250;2023-07-20T01:21:40;5.03;;;3.10;;
8040;SDS011;4063;48.140;10.250;2023-07-20T01:24:19;4.13;;;2.38;;
8040;SDS011;4063;48.140;10.250;2023-07-20T01:29:22;4.53;;;2.20;;
8040;SDS011;4063;48.140;10.250;2023-07-20T01:31:52;6.90;;;2.53;;
8040;SDS011;4063;48.140;10.250;2023-07-20T01:34:20;3.50;;;2.17;;
8040;SDS011;4063;48.140;10.250;2023-07-20T01:36:48;15.45;;;7.97;;
8040;SDS011;4063;48.140;10.250;2023-07-20T01:39:15;13.10;;;7.55;;
8040;SDS011;4063;48.140;10.250;2023-07-20T01:41:41;10.52;;;5.75;;
8040;SDS011;4063;48.140;10.250;2023-07-20T01:44:07;10.93;;;5.32;;
8040;SDS011;4063;48.140;10.250;2023-07-20T01:46:33;6.82;;;4.45;;
8040;SDS011;4063;48.140;10.250;2023-07-20T01:48:59;7.00;;;4.15;;
8040;SDS011;4063;48.140;10.250;2023-07-20T01:51:25;6.60;;;3.63;;
8040;SDS011;4063;48.140;10.250;2023-07-20T01:53:51;2.33;;;2.13;;
8040;SDS011;4063;48.140;10.250;2023-07-20T01:56:17;3.17;;;2.00;;
8040;SDS011;4063;48.140;10.250;2023-07-20T01:58:43;3.10;;;2.00;;
8040;SDS011;4063;48.140;10.250;2023-07-20T02:01:09;3.60;;;1.98;;
8040;SDS011;4063;48.140;10.250;2023-07-20T02:03:35;1.63;;;1.52;;
8040;SDS011;4063;48.140;10.250;2023-07-20T02:06:01;2.63;;;1.80;;
8040;SDS011;4063;48.140;10.250;2023-07-20T02:08:27;4.03;;;2.22;;
8040;SDS011;4063;48.140;10.250;2023-07-20T02:10:53;4.47;;;2.10;;
8040;SDS011;4063;48.140;10.250;2023-07-20T02:13:19;2.67;;;1.70;;
8040;SDS011;4063;48.140;10.250;2023-07-20T02:15:45;4.90;;;1.70;;
8040;SDS011;4063;48.140;10.250;2023-07-20T02:18:12;7.03;;;1.60;;
8040;SDS011;4063;48.140;10.250;2023-07-20T02:20:38;2.05;;;1.85;;
8040;SDS011;4063;48.140;10.250;2023-07-20T02:23:06;4.18;;;1.90;;
8040;SDS011;4063;48.140;10.250;2023-07-20T02:25:31;7.07;;;3.60;;
8040;SDS011;4063;48.140;10.250;2023-07-20T02:27:57;4.53;;;2.53;;
8040;SDS011;4063;48.140;10.250;2023-07-20T02:30:23;4.30;;;3.00;;
8040;SDS011;4063;48.140;10.250;2023-07-20T02:32:49;9.52;;;5.15;;
8040;SDS011;4063;48.140;10.250;2023-07-20T02:35:16;6.75;;;3.72;;
8040;SDS011;4063;48.140;10.250;2023-07-20T02:37:42;13.50;;;5.22;;
8040;SDS011;4063;48.140;10.250;2023-07-20T02:40:08;14.27;;;6.40;;
8040;SDS011;4063;48.140;10.250;2023-07-20T02:42:34;9.63;;;4.68;;
8040;SDS011;4063;48.140;10.250;2023-07-20T02:45:01;10.38;;;6.47;;
8040;SDS011;4063;48.140;10.250;2023-07-20T02:47:28;7.03;;;3.90;;
8040;SDS011;4063;48.140;10.250;2023-07-20T02:49:54;7.85;;;3.95;;
8040;SDS011;4063;48.140;10.250;2023-07-20T02:52:20;13.48;;;7.78;;
8040;SDS011;4063;48.140;10.250;2023-07-20T02:54:46;7.65;;;4.57;;
8040;SDS011;4063;48.140;10.250;2023-07-20T02:57:12;9.88;;;5.93;;
8040;SDS011;4063;48.140;10.250;2023-07-20T02:59:38;10.57;;;5.22;;
8040;SDS011;4063;48.140;10.250;2023-07-20T03:02:04;9.63;;;4.70;;
8040;SDS011;4063;48.140;10.250;2023-07-20T03:04:30;7.35;;;4.25;;
8040;SDS011;4063;48.140;10.250;2023-07-20T03:06:56;5.03;;;3.85;;
8040;SDS011;4063;48.140;10.250;2023-07-20T03:09:22;5.55;;;3.88;;
8040;SDS011;4063;48.140;10.250;2023-07-20T03:11:48;9.10;;;5.07;;
8040;SDS011;4063;48.140;10.250;2023-07-20T03:14:14;4.20;;;2.80;;
8040;SDS011;4063;48.140;10.250;2023-07-20T03:16:40;3.78;;;2.78;;
8040;SDS011;4063;48.140;10.250;2023-07-20T03:19:06;5.05;;;2.30;;
8040;SDS011;4063;48.140;10.250;2023-07-20T03:21:32;3.72;;;2.70;;
8040;SDS011;4063;48.140;10.250;2023-07-20T03:23:58;3.20;;;2.28;;
8040;SDS011;4063;48.140;10.250;2023-07-20T03:26:24;8.43;;;2.90;;
8040;SDS011;4063;48.140;10.250;2023-07-20T03:28:50;2.85;;;2.63;;
8040;SDS011;4063;48.140;10.250;2023-07-20T03:31:16;2.05;;;1.95;;
8040;SDS011;4063;48.140;10.250;2023-07-20T03:33:42;8.65;;;6.03;;
8040;SDS011;4063;48.140;10.250;2023-07-20T03:36:08;7.55;;;4.78;;
8040;SDS011;4063;48.140;10.250;2023-07-20T03:38:35;6.80;;;4.10;;
8040;SDS011;4063;48.140;10.250;2023-07-20T03:41:01;4.82;;;3.88;;
8040;SDS011;4063;48.140;10.250;2023-07-20T03:43:27;8.68;;;4.90;;
8040;SDS011;4063;48.140;10.250;2023-07-20T03:45:53;9.73;;;5.20;;
8040;SDS011;4063;48.140;10.250;2023-07-20T03:48:20;9.25;;;5.10;;
8040;SDS011;4063;48.140;10.250;2023-07-20T03:50:47;7.55;;;4.47;;
8040;SDS011;4063;48.140;10.250;2023-07-20T03:53:14;8.43;;;5.00;;
8040;SDS011;4063;48.140;10.250;2023-07-20T03:55:40;4.20;;;3.20;;
8040;SDS011;4063;48.140;10.250;2023-07-20T03:58:07;4.85;;;3.22;;
8040;SDS011;4063;48.140;10.250;2023-07-20T04:00:33;4.13;;;2.60;;
8040;SDS011;4063;48.140;10.250;2023-07-20T04:02:59;4.30;;;2.70;;
8040;SDS011;4063;48.140;10.250;2023-07-20T04:05:25;3.92;;;2.92;;
8040;SDS011;4063;48.140;10.250;2023-07-20T04:07:52;4.45;;;2.50;;
8040;SDS011;4063;48.140;10.250;2023-07-20T04:10:21;5.75;;;4.20;;
8040;SDS011;4063;48.140;10.250;2023-07-20T04:12:47;5.93;;;3.30;;
8040;SDS011;4063;48.140;10.250;2023-07-20T04:15:13;2.78;;;2.50;;
8040;SDS011;4063;48.140;10.250;2023-07-20T04:17:39;5.78;;;2.53;;
8040;SDS011;4063;48.140;10.250;2023-07-20T04:20:06;4.80;;;2.58;;
8040;SDS011;4063;48.140;10.250;2023-07-20T04:22:32;5.93;;;3.47;;
8040;SDS011;4063;48.140;10.250;2023-07-20T04:24:58;6.30;;;3.63;;
8040;SDS011;4063;48.140;10.250;2023-07-20T04:27:24;8.60;;;3.55;;
8040;SDS011;4063;48.140;10.250;2023-07-20T04:29:51;7.45;;;5.07;;
8040;SDS011;4063;48.140;10.250;2023-07-20T04:32:17;4.38;;;3.80;;
8040;SDS011;4063;48.140;10.250;2023-07-20T04:34:43;7.47;;;4.63;;
8040;SDS011;4063;48.140;10.250;2023-07-20T04:37:09;9.32;;;5.10;;
8040;SDS011;4063;48.140;10.250;2023-07-20T04:39:35;8.80;;;4.35;;
8040;SDS011;4063;48.140;10.250;2023-07-20T04:42:00;6.05;;;3.10;;
8040;SDS011;4063;48.140;10.250;2023-07-20T04:44:26;5.72;;;2.90;;
8040;SDS011;4063;48.140;10.250;2023-07-20T04:46:52;4.47;;;2.72;;
8040;SDS011;4063;48.140;10.250;2023-07-20T04:49:18;2.60;;;2.30;;
8040;SDS011;4063;48.140;10.250;2023-07-20T04:51:45;4.07;;;2.70;;
8040;SDS011;4063;48.140;10.250;2023-07-20T04:54:11;3.83;;;2.58;;
8040;SDS011;4063;48.140;10.250;2023-07-20T04:56:38;2.97;;;2.53;;
8040;SDS011;4063;48.140;10.250;2023-07-20T04:59:04;6.07;;;2.47;;
8040;SDS011;4063;48.140;10.250;2023-07-20T05:01:30;3.55;;;2.45;;
8040;SDS011;4063;48.140;10.250;2023-07-20T05:03:56;4.45;;;2.30;;
8040;SDS011;4063;48.140;10.250;2023-07-20T05:06:22;3.97;;;2.65;;
8040;SDS011;4063;48.140;10.250;2023-07-20T05:08:48;3.13;;;2.47;;
8040;SDS011;4063;48.140;10.250;2023-07-20T05:11:14;3.55;;;2.40;;
8040;SDS011;4063;48.140;10.250;2023-07-20T05:13:40;6.18;;;2.90;;
8040;SDS011;4063;48.140;10.250;2023-07-20T05:16:07;5.75;;;2.90;;
8040;SDS011;4063;48.140;10.250;2023-07-20T05:18:33;4.38;;;2.67;;
8040;SDS011;4063;48.140;10.250;2023-07-20T05:20:59;2.75;;;2.30;;
8040;SDS011;4063;48.140;10.250;2023-07-20T05:23:25;2.80;;;2.50;;
8040;SDS011;4063;48.140;10.250;2023-07-20T05:25:54;4.15;;;3.20;;
8040;SDS011;4063;48.140;10.250;2023-07-20T05:28:24;4.03;;;3.03;;
8040;SDS011;4063;48.140;10.250;2023-07-20T05:30:51;3.13;;;2.60;;
8040;SDS011;4063;48.140;10.250;2023-07-20T05:33:20;17.15;;;3.22;;
8040;SDS011;4063;48.140;10.250;2023-07-20T05:35:46;5.82;;;2.55;;
8040;SDS011;4063;48.140;10.250;2023-07-20T05:38:12;3.65;;;2.55;;
8040;SDS011;4063;48.140;10.250;2023-07-20T05:40:42;2.38;;;2.00;;
8040;SDS011;4063;48.140;10.250;2023-07-20T05:43:08;3.42;;;2.25;;
8040;SDS011;4063;48.140;10.250;2023-07-20T05:45:34;6.22;;;3.92;;
8040;SDS011;4063;48.140;10.250;2023-07-20T05:48:00;12.65;;;6.13;;
8040;SDS011;4063;48.140;10.250;2023-07-20T05:50:26;3.35;;;2.88;;
8040;SDS011;4063;48.140;10.250;2023-07-20T05:52:53;8.90;;;3.80;;
8040;SDS011;4063;48.140;10.250;2023-07-20T05:55:19;11.27;;;6.95;;
8040;SDS011;4063;48.140;10.250;2023-07-20T05:57:45;4.28;;;2.65;;
8040;SDS011;4063;48.140;10.250;2023-07-20T06:00:12;3.53;;;3.10;;
8040;SDS011;4063;48.140;10.250;2023-07-20T06:02:39;3.20;;;2.35;;
8040;SDS011;4063;48.140;10.250;2023-07-20T06:05:06;4.03;;;2.60;;
8040;SDS011;4063;48.140;10.250;2023-07-20T06:07:34;5.00;;;2.25;;
8040;SDS011;4063;48.140;10.250;2023-07-20T06:10:00;4.78;;;2.80;;
8040;SDS011;4063;48.140;10.250;2023-07-20T06:12:27;9.05;;;5.45;;
8040;SDS011;4063;48.140;10.250;2023-07-20T06:14:53;8.27;;;4.30;;
8040;SDS011;4063;48.140;10.250;2023-07-20T06:17:19;6.47;;;4.20;;
8040;SDS011;4063;48.140;10.250;2023-07-20T06:19:45;5.57;;;3.00;;
8040;SDS011;4063;48.140;10.250;2023-07-20T06:22:11;5.38;;;3.00;;
8040;SDS011;4063;48.140;10.250;2023-07-20T06:24:37;5.68;;;3.42;;
8040;SDS011;4063;48.140;10.250;2023-07-20T06:27:03;5.22;;;3.00;;
8040;SDS011;4063;48.140;10.250;2023-07-20T06:29:30;3.40;;;2.50;;
8040;SDS011;4063;48.140;10.250;2023-07-20T06:31:56;2.45;;;2.25;;
8040;SDS011;4063;48.140;10.250;2023-07-20T06:34:22;3.22;;;2.58;;
8040;SDS011;4063;48.140;10.250;2023-07-20T06:36:48;2.72;;;2.47;;
8040;SDS011;4063;48.140;10.250;2023-07-20T06:39:14;5.55;;;3.22;;
8040;SDS011;4063;48.140;10.250;2023-07-20T06:41:40;2.67;;;2.20;;
8040;SDS011;4063;48.140;10.250;2023-07-20T06:44:06;3.47;;;2.30;;
8040;SDS011;4063;48.140;10.250;2023-07-20T06:46:33;8.32;;;3.53;;
8040;SDS011;4063;48.140;10.250;2023-07-20T06:48:59;3.25;;;2.40;;
8040;SDS011;4063;48.140;10.250;2023-07-20T06:51:25;2.58;;;2.25;;
8040;SDS011;4063;48.140;10.250;2023-07-20T06:53:51;5.85;;;3.40;;
8040;SDS011;4063;48.140;10.250;2023-07-20T06:56:16;4.45;;;2.85;;
8040;SDS011;4063;48.140;10.250;2023-07-20T06:58:43;6.88;;;3.97;;
8040;SDS011;4063;48.140;10.250;2023-07-20T07:01:08;3.85;;;2.92;;
8040;SDS011;4063;48.140;10.250;2023-07-20T07:03:34;4.82;;;2.63;;
8040;SDS011;4063;48.140;10.250;2023-07-20T07:06:01;4.60;;;3.00;;
8040;SDS011;4063;48.140;10.250;2023-07-20T07:08:28;11.23;;;5.72;;
8040;SDS011;4063;48.140;10.250;2023-07-20T07:10:54;5.35;;;3.10;;
8040;SDS011;4063;48.140;10.250;2023-07-20T07:13:20;6.38;;;3.88;;
8040;SDS011;4063;48.140;10.250;2023-07-20T07:15:46;4.53;;;2.90;;
8040;SDS011;4063;48.140;10.250;2023-07-20T07:18:12;2.53;;;2.10;;
8040;SDS011;4063;48.140;10.250;2023-07-20T07:20:38;3.22;;;2.42;;
8040;SDS011;4063;48.140;10.250;2023-07-20T07:23:04;3.38;;;2.15;;
8040;SDS011;4063;48.140;10.250;2023-07-20T07:25:30;2.28;;;2.03;;
8040;SDS011;4063;48.140;10.250;2023-07-20T07:27:57;3.22;;;2.22;;
8040;SDS011;4063;48.140;10.250;2023-07-20T07:30:23;3.53;;;2.22;;
8040;SDS011;4063;48.140;10.250;2023-07-20T07:32:49;5.68;;;2.10;;
8040;SDS011;4063;48.140;10.250;2023-07-20T07:35:15;2.45;;;2.08;;
8040;SDS011;4063;48.140;10.250;2023-07-20T07:37:41;4.13;;;2.80;;
8040;SDS011;4063;48.140;10.250;2023-07-20T07:40:07;2.60;;;2.40;;
8040;SDS011;4063;48.140;10.250;2023-07-20T07:42:33;2.80;;;2.10;;
8040;SDS011;4063;48.140;10.250;2023-07-20T07:44:59;3.42;;;2.58;;
8040;SDS011;4063;48.140;10.250;2023-07-20T07:47:25;3.20;;;2.40;;
8040;SDS011;4063;48.140;10.250;2023-07-20T07:49:51;4.70;;;2.38;;
8040;SDS011;4063;48.140;10.250;2023-07-20T07:52:17;3.60;;;2.00;;
8040;SDS011;4063;48.140;10.250;2023-07-20T07:54:43;3.10;;;2.40;;
8040;SDS011;4063;48.140;10.250;2023-07-20T07:57:09;4.85;;;3.40;;
8040;SDS011;4063;48.140;10.250;2023-07-20T07:59:35;12.52;;;3.03;;
8040;SDS011;4063;48.140;10.250;2023-07-20T08:02:03;3.35;;;2.20;;
8040;SDS011;4063;48.140;10.250;2023-07-20T08:04:30;3.40;;;2.20;;
8040;SDS011;4063;48.140;10.250;2023-07-20T08:06:56;3.70;;;2.05;;
8040;SDS011;4063;48.140;10.250;2023-07-20T08:09:22;2.28;;;2.08;;
8040;SDS011;4063;48.140;10.250;2023-07-20T08:11:48;6.40;;;2.30;;
8040;SDS011;4063;48.140;10.250;2023-07-20T08:14:14;3.30;;;1.90;;
8040;SDS011;4063;48.140;10.250;2023-07-20T08:16:40;3.17;;;1.90;;
8040;SDS011;4063;48.140;10.250;2023-07-20T08:19:07;4.75;;;2.00;;
8040;SDS011;4063;48.140;10.250;2023-07-20T08:21:33;2.42;;;2.22;;
8040;SDS011;4063;48.140;10.250;2023-07-20T08:23:59;5.30;;;2.35;;
8040;SDS011;4063;48.140;10.250;2023-07-20T08:26:25;4.60;;;2.67;;
8040;SDS011;4063;48.140;10.250;2023-07-20T08:28:51;5.60;;;3.50;;
8040;SDS011;4063;48.140;10.250;2023-07-20T08:31:17;2.97;;;2.28;;
8040;SDS011;4063;48.140;10.250;2023-07-20T08:33:43;2.28;;;2.08;;
8040;SDS011;4063;48.140;10.250;2023-07-20T08:36:09;3.30;;;2.83;;
8040;SDS011;4063;48.140;10.250;2023-07-20T08:38:36;2.05;;;1.83;;
8040;SDS011;4063;48.140;10.250;2023-07-20T08:41:02;3.15;;;2.10;;
8040;SDS011;4063;48.140;10.250;2023-07-20T08:43:28;2.97;;;1.80;;
8040;SDS011;4063;48.140;10.250;2023-07-20T08:45:55;2.90;;;1.95;;
8040;SDS011;4063;48.140;10.250;2023-07-20T08:48:21;1.85;;;1.67;;
8040;SDS011;4063;48.140;10.250;2023-07-20T08:50:49;2.08;;;1.88;;
8040;SDS011;4063;48.140;10.250;2023-07-20T08:53:16;1.77;;;1.55;;
8040;SDS011;4063;48.140;10.250;2023-07-20T08:55:42;2.50;;;1.60;;
8040;SDS011;4063;48.140;10.250;2023-07-20T08:58:11;3.53;;;1.90;;
8040;SDS011;4063;48.140;10.250;2023-07-20T09:00:39;2.80;;;1.70;;
8040;SDS011;4063;48.140;10.250;2023-07-20T09:03:06;1.70;;;1.60;;
8040;SDS011;4063;48.140;10.250;2023-07-20T09:05:33;3.33;;;1.83;;
8040;SDS011;4063;48.140;10.250;2023-07-20T09:08:00;2.67;;;1.92;;
8040;SDS011;4063;48.140;10.250;2023-07-20T09:10:27;2.75;;;1.65;;
8040;SDS011;4063;48.140;10.250;2023-07-20T09:12:53;2.38;;;1.92;;
8040;SDS011;4063;48.140;10.250;2023-07-20T09:15:20;1.92;;;1.52;;
8040;SDS011;4063;48.140;10.250;2023-07-20T09:17:47;5.22;;;2.55;;
8040;SDS011;4063;48.140;10.250;2023-07-20T09:20:14;7.07;;;3.30;;
8040;SDS011;4063;48.140;10.250;2023-07-20T09:22:41;3.67;;;2.17;;
8040;SDS011;4063;48.140;10.250;2023-07-20T09:25:17;3.05;;;2.40;;
8040;SDS011;4063;48.140;10.250;2023-07-20T09:27:45;5.97;;;3.72;;
8040;SDS011;4063;48.140;10.250;2023-07-20T09:30:13;3.67;;;2.20;;
8040;SDS011;4063;48.140;10.250;2023-07-20T09:37:46;5.35;;;2.42;;
8040;SDS011;4063;48.140;10.250;2023-07-20T09:40:14;6.75;;;4.38;;
8040;SDS011;4063;48.140;10.250;2023-07-20T09:42:42;5.15;;;2.13;;
8040;SDS011;4063;48.140;10.250;2023-07-20T09:45:08;4.18;;;3.17;;
8040;SDS011;4063;48.140;10.250;2023-07-20T09:47:35;2.35;;;1.90;;
8040;SDS011;4063;48.140;10.250;2023-07-20T09:50:05;2.00;;;1.80;;
8040;SDS011;4063;48.140;10.250;2023-07-20T09:52:35;2.08;;;1.70;;
8040;SDS011;4063;48.140;10.250;2023-07-20T09:55:04;2.47;;;1.75;;
8040;SDS011;4063;48.140;10.250;2023-07-20T09:57:32;1.95;;;1.70;;
8040;SDS011;4063;48.140;10.250;2023-07-20T09:59:58;2.10;;;1.60;;
8040;SDS011;4063;48.140;10.250;2023-07-20T10:02:30;2.47;;;2.10;;
8040;SDS011;4063;48.140;10.250;2023-07-20T10:04:58;1.92;;;1.70;;
8040;SDS011;4063;48.140;10.250;2023-07-20T10:07:29;2.13;;;1.70;;
8040;SDS011;4063;48.140;10.250;2023-07-20T10:09:55;2.33;;;1.65;;
8040;SDS011;4063;48.140;10.250;2023-07-20T10:12:24;1.90;;;1.77;;
8040;SDS011;4063;48.140;10.250;2023-07-20T10:20:22;2.45;;;1.80;;
8040;SDS011;4063;48.140;10.250;2023-07-20T10:22:48;2.55;;;2.05;;
8040;SDS011;4063;48.140;10.250;2023-07-20T10:25:17;1.70;;;1.58;;
8040;SDS011;4063;48.140;10.250;2023-07-20T10:27:43;2.00;;;1.63;;
8040;SDS011;4063;48.140;10.250;2023-07-20T10:30:09;2.35;;;1.88;;
8040;SDS011;4063;48.140;10.250;2023-07-20T10:32:35;3.25;;;1.80;;
8040;SDS011;4063;48.140;10.250;2023-07-20T10:35:00;3.53;;;2.25;;
8040;SDS011;4063;48.140;10.250;2023-07-20T10:37:46;3.83;;;2.38;;
8040;SDS011;4063;48.140;10.250;2023-07-20T10:40:28;4.75;;;2.40;;
8040;SDS011;4063;48.140;10.250;2023-07-20T10:43:04;1.88;;;1.67;;
8040;SDS011;4063;48.140;10.250;2023-07-20T10:45:42;2.08;;;1.80;;
8040;SDS011;4063;48.140;10.250;2023-07-20T10:48:21;1.98;;;1.77;;
8040;SDS011;4063;48.140;10.250;2023-07-20T10:53:35;3.92;;;1.88;;
8040;SDS011;4063;48.140;10.250;2023-07-20T10:56:13;5.63;;;1.73;;
8040;SDS011;4063;48.140;10.250;2023-07-20T10:58:40;1.92;;;1.67;;
8040;SDS011;4063;48.140;10.250;2023-07-20T11:01:11;5.47;;;2.05;;
8040;SDS011;4063;48.140;10.250;2023-07-20T11:03:39;3.88;;;1.98;;
8040;SDS011;4063;48.140;10.250;2023-07-20T11:08:54;3.35;;;2.10;;
8040;SDS011;4063;48.140;10.250;2023-07-20T11:11:25;2.80;;;2.03;;
8040;SDS011;4063;48.140;10.250;2023-07-20T11:13:56;1.90;;;1.65;;
8040;SDS011;4063;48.140;10.250;2023-07-20T11:16:36;3.10;;;1.67;;
8040;SDS011;4063;48.140;10.250;2023-07-20T11:19:24;2.05;;;1.70;;
8040;SDS011;4063;48.140;10.250;2023-07-20T11:21:54;2.30;;;1.80;;
8040;SDS011;4063;48.140;10.250;2023-07-20T11:24:21;7.03;;;2.53;;
8040;SDS011;4063;48.140;10.250;2023-07-20T11:26:48;3.70;;;1.92;;
8040;SDS011;4063;48.140;10.250;2023-07-20T11:29:15;2.15;;;1.77;;
8040;SDS011;4063;48.140;10.250;2023-07-20T11:31:42;3.28;;;2.13;;
8040;SDS011;4063;48.140;10.250;2023-07-20T11:34:10;2.00;;;1.77;;
8040;SDS011;4063;48.140;10.250;2023-07-20T11:36:43;2.65;;;2.03;;
8040;SDS011;4063;48.140;10.250;2023-07-20T11:39:10;3.22;;;2.15;;
8040;SDS011;4063;48.140;10.250;2023-07-20T11:41:37;3.78;;;2.10;;
8040;SDS011;4063;48.140;10.250;2023-07-20T11:44:06;3.20;;;1.80;;
8040;SDS011;4063;48.140;10.250;2023-07-20T11:46:32;2.17;;;1.95;;
8040;SDS011;4063;48.140;10.250;2023-07-20T11:48:59;5.10;;;1.83;;
8040;SDS011;4063;48.140;10.250;2023-07-20T11:51:26;3.58;;;2.00;;
8040;SDS011;4063;48.140;10.250;2023-07-20T11:53:53;2.20;;;1.83;;
8040;SDS011;4063;48.140;10.250;2023-07-20T11:56:19;2.25;;;2.00;;
8040;SDS011;4063;48.140;10.250;2023-07-20T11:58:45;2.30;;;1.98;;
8040;SDS011;4063;48.140;10.250;2023-07-20T12:01:12;2.40;;;1.73;;
8040;SDS011;4063;48.140;10.250;2023-07-20T12:03:38;3.88;;;2.05;;
8040;SDS011;4063;48.140;10.250;2023-07-20T12:06:08;3.80;;;2.03;;
8040;SDS011;4063;48.140;10.250;2023-07-20T12:08:34;2.92;;;2.53;;
8040;SDS011;4063;48.140;10.250;2023-07-20T12:11:00;2.38;;;2.17;;
8040;SDS011;4063;48.140;10.250;2023-07-20T12:13:40;3.30;;;1.88;;
8040;SDS011;4063;48.140;10.250;2023-07-20T12:16:11;2.40;;;1.70;;
8040;SDS011;4063;48.140;10.250;2023-07-20T12:18:38;4.28;;;2.00;;
8040;SDS011;4063;48.140;10.250;2023-07-20T12:21:05;2.47;;;2.03;;
8040;SDS011;4063;48.140;10.250;2023-07-20T12:23:38;2.20;;;2.00;;
8040;SDS011;4063;48.140;10.250;2023-07-20T12:26:07;2.75;;;1.95;;
8040;SDS011;4063;48.140;10.250;2023-07-20T12:28:35;4.53;;;2.92;;
8040;SDS011;4063;48.140;10.250;2023-07-20T12:31:04;2.92;;;1.92;;
8040;SDS011;4063;48.140;10.250;2023-07-20T12:33:31;2.15;;;1.80;;
8040;SDS011;4063;48.140;10.250;2023-07-20T12:35:57;2.17;;;1.70;;
8040;SDS011;4063;48.140;10.250;2023-07-20T12:38:24;2.17;;;1.98;;
8040;SDS011;4063;48.140;10.250;2023-07-20T12:40:52;1.60;;;1.50;;
8040;SDS011;4063;48.140;10.250;2023-07-20T12:43:19;3.47;;;2.47;;
8040;SDS011;4063;48.140;10.250;2023-07-20T12:45:45;2.53;;;1.80;;
8040;SDS011;4063;48.140;10.250;2023-07-20T12:48:11;3.30;;;2.15;;
8040;SDS011;4063;48.140;10.250;2023-07-20T12:50:37;3.65;;;2.20;;
8040;SDS011;4063;48.140;10.250;2023-07-20T12:53:02;2.60;;;1.75;;
8040;SDS011;4063;48.140;10.250;2023-07-20T12:55:28;3.10;;;1.90;;
8040;SDS011;4063;48.140;10.250;2023-07-20T12:57:54;3.50;;;2.38;;
8040;SDS011;4063;48.140;10.250;2023-07-20T13:00:20;3.13;;;1.90;;
8040;SDS011;4063;48.140;10.250;2023-07-20T13:02:49;2.78;;;1.90;;
8040;SDS011;4063;48.140;10.250;2023-07-20T13:05:15;2.75;;;2.10;;
8040;SDS011;4063;48.140;10.250;2023-07-20T13:07:41;2.25;;;1.80;;
8040;SDS011;4063;48.140;10.250;2023-07-20T13:10:07;4.00;;;2.20;;
8040;SDS011;4063;48.140;10.250;2023-07-20T13:12:34;5.57;;;3.30;;
8040;SDS011;4063;48.140;10.250;2023-07-20T13:15:01;1.65;;;1.55;;
8040;SDS011;4063;48.140;10.250;2023-07-20T13:17:31;1.85;;;1.70;;
8040;SDS011;4063;48.140;10.250;2023-07-20T13:19:57;2.08;;;1.80;;
8040;SDS011;4063;48.140;10.250;2023-07-20T13:22:23;1.85;;;1.73;;
8040;SDS011;4063;48.140;10.250;2023-07-20T13:24:49;3.58;;;1.60;;
8040;SDS011;4063;48.140;10.250;2023-07-20T13:27:15;3.22;;;1.67;;
8040;SDS011;4063;48.140;10.250;2023-07-20T13:29:41;2.40;;;1.65;;
8040;SDS011;4063;48.140;10.250;2023-07-20T13:32:07;7.55;;;3.97;;
8040;SDS011;4063;48.140;10.250;2023-07-20T13:34:34;4.35;;;3.17;;
8040;SDS011;4063;48.140;10.250;2023-07-20T13:37:00;3.38;;;2.38;;
8040;SDS011;4063;48.140;10.250;2023-07-20T13:39:26;2.25;;;2.00;;
8040;SDS011;4063;48.140;10.250;2023-07-20T13:41:53;2.65;;;1.95;;
8040;SDS011;4063;48.140;10.250;2023-07-20T13:44:19;3.70;;;1.90;;
8040;SDS011;4063;48.140;10.250;2023-07-20T13:46:46;2.83;;;2.20;;
8040;SDS011;4063;48.140;10.250;2023-07-20T13:49:11;2.17;;;1.75;;
8040;SDS011;4063;48.140;10.250;2023-07-20T13:51:37;3.15;;;2.17;;
8040;SDS011;4063;48.140;10.250;2023-07-20T13:54:03;4.82;;;2.53;;
8040;SDS011;4063;48.140;10.250;2023-07-20T13:56:29;2.85;;;1.90;;
8040;SDS011;4063;48.140;10.250;2023-07-20T13:58:56;4.13;;;1.80;;
8040;SDS011;4063;48.140;10.250;2023-07-20T14:01:22;1.98;;;1.67;;
8040;SDS011;4063;48.140;10.250;2023-07-20T14:03:49;1.80;;;1.70;;
8040;SDS011;4063;48.140;10.250;2023-07-20T14:06:17;2.30;;;1.63;;
8040;SDS011;4063;48.140;10.250;2023-07-20T14:08:43;2.60;;;1.83;;
8040;SDS011;4063;48.140;10.250;2023-07-20T14:11:12;3.65;;;2.13;;
8040;SDS011;4063;48.140;10.250;2023-07-20T14:13:38;1.92;;;1.83;;
8040;SDS011;4063;48.140;10.250;2023-07-20T14:16:04;2.08;;;1.60;;
8040;SDS011;4063;48.140;10.250;2023-07-20T14:18:30;2.58;;;1.85;;
8040;SDS011;4063;48.140;10.250;2023-07-20T14:20:56;2.25;;;1.60;;
8040;SDS011;4063;48.140;10.250;2023-07-20T14:23:23;2.53;;;2.00;;
8040;SDS011;4063;48.140;10.250;2023-07-20T14:25:49;6.90;;;3.97;;
8040;SDS011;4063;48.140;10.250;2023-07-20T14:28:15;3.35;;;1.50;;
8040;SDS011;4063;48.140;10.250;2023-07-20T14:30:41;3.72;;;2.20;;
8040;SDS011;4063;48.140;10.250;2023-07-20T14:33:07;7.60;;;4.25;;
8040;SDS011;4063;48.140;10.250;2023-07-20T14:35:33;3.30;;;2.25;;
8040;SDS011;4063;48.140;10.250;2023-07-20T14:38:00;2.95;;;1.83;;
8040;SDS011;4063;48.140;10.250;2023-07-20T14:40:26;3.90;;;1.80;;
8040;SDS011;4063;48.140;10.250;2023-07-20T14:42:52;1.70;;;1.60;;
8040;SDS011;4063;48.140;10.250;2023-07-20T14:45:18;2.60;;;2.00;;
8040;SDS011;4063;48.140;10.250;2023-07-20T14:47:44;2.72;;;2.30;;
8040;SDS011;4063;48.140;10.250;2023-07-20T14:50:10;2.25;;;1.55;;
8040;SDS011;4063;48.140;10.250;2023-07-20T14:52:36;3.78;;;2.00;;
8040;SDS011;4063;48.140;10.250;2023-07-20T14:55:03;2.17;;;1.95;;
8040;SDS011;4063;48.140;10.250;2023-07-20T14:57:29;3.00;;;1.52;;
8040;SDS011;4063;48.140;10.250;2023-07-20T14:59:55;2.03;;;1.83;;
8040;SDS011;4063;48.140;10.250;2023-07-20T15:02:21;2.28;;;1.58;;
8040;SDS011;4063;48.140;10.250;2023-07-20T15:04:51;1.73;;;1.48;;
8040;SDS011;4063;48.140;10.250;2023-07-20T15:07:18;5.93;;;2.22;;
8040;SDS011;4063;48.140;10.250;2023-07-20T15:09:44;2.85;;;1.50;;
8040;SDS011;4063;48.140;10.250;2023-07-20T15:12:10;2.33;;;1.70;;
8040;SDS011;4063;48.140;10.250;2023-07-20T15:14:40;1.85;;;1.63;;
8040;SDS011;4063;48.140;10.250;2023-07-20T15:17:07;1.83;;;1.52;;
8040;SDS011;4063;48.140;10.250;2023-07-20T15:19:33;2.53;;;1.77;;
8040;SDS011;4063;48.140;10.250;2023-07-20T15:22:01;3.63;;;1.98;;